Airfield :
LOGIN :

Register | Disclaimer

   EN    FR    IT 

 










Legend :    VFR   Marginal VFR   IFR   Intensive IFR   Very Intensive IFR
Visi :
Ceiling :
>= 8 km
>= 3000ft
5 to 8 km
1000 to 3000 ft
1500m to 5 km
500 to 1000 ft
800 to 1500m
200 to 500 ft
< 800m
< 200 ft
Symbols :   Thunderstorms  Fog  Heavy snow  Heavy precipitations  Wind > 20 kt
SIGMETs :     Misc.  Thunderstorms  Icing  Turbulence  Mountain Waves  Volcanic Ashes






- Airport Elevation : 796 ft
- IATA code : SYT


LFLN - Saint-Yan

CURRENT METAR :
  • 221400Z AUTO 10009KT 060V140 CAVOK 28/16 Q1010 TEMPO VRB15G25KT TSRA FEW090CB

EXPIRED METARs :
  • 221330Z AUTO 08009KT 030V120 CAVOK 28/16 Q1010 TEMPO VRB15G25KT TSRA FEW090CB
  • 221300Z AUTO 05010KT 9999 ///TCU 27/15 Q1010 TEMPO VRB15G25KT SHRA FEW090CB
  • 221230Z AUTO 02008KT 360V070 9999 //////TCU 28/15 Q1011 TEMPO VRB15G25KT SHRA FEW090CB
  • 221200Z AUTO 02006KT 340V100 CAVOK 27/15 Q1012 TEMPO VRB15G25KT SHRA FEW090CB
  • 221130Z AUTO 35006KT 250V050 CAVOK 27/15 Q1012 NOSIG

TAF TAF LFLN
Valid from the 22 at 15:00 until the 23 at 00:00 UTC


221400Z 2215/2224 09008KT CAVOK
PROB40
TEMPO 2215/2224 VRB15G25KT SHRA FEW090CB
PROB30
TEMPO 2215/2224 TSRA



MET'MAP, your aeronautical weather chart ! - Copyright ORBIFLY December 2007 - Disclaimer

ORBIFLY MET'MAP TEAM :

Programming & Development : Alexandra Zaïnal
Original concept : Baudouin d'Aumeries
Technical & hardware support : Manuel Goepfert
Assistance : Marc-Olivier Méhu

Contact : metmap@orbifly.com




SOURCES & CREDITS :

   NOAA